createdAt,value
2023-05-25T00:01:02.540Z,100.00
2023-05-25T00:03:36.403Z,91.14
2023-05-25T00:06:07.414Z,93.76
2023-05-25T00:08:38.002Z,93.32
2023-05-25T00:11:08.712Z,88.46
2023-05-25T00:13:39.297Z,80.01
2023-05-25T00:16:10.614Z,84.02
2023-05-25T00:18:43.850Z,81.85
2023-05-25T00:21:14.473Z,79.07
2023-05-25T00:23:45.149Z,77.68
2023-05-25T00:26:15.825Z,80.37
2023-05-25T00:28:46.423Z,74.64
2023-05-25T00:31:16.980Z,75.20
2023-05-25T00:33:50.680Z,75.48
2023-05-25T00:36:21.491Z,76.99
2023-05-25T00:38:52.159Z,75.08
2023-05-25T00:41:23.374Z,75.47
2023-05-25T00:43:54.109Z,77.29
2023-05-25T00:46:25.938Z,77.75
2023-05-25T00:48:59.490Z,78.81
2023-05-25T00:51:33.080Z,86.50
2023-05-25T00:54:03.714Z,82.71
2023-05-25T00:56:35.831Z,81.28
2023-05-25T00:59:09.796Z,81.08
2023-05-25T01:01:44.983Z,90.54
2023-05-25T01:04:21.703Z,87.08
2023-05-25T01:06:54.617Z,86.69
2023-05-25T01:09:27.652Z,86.22
2023-05-25T01:12:00.407Z,86.62
2023-05-25T01:14:31.636Z,86.75
2023-05-25T01:17:03.400Z,88.36
2023-05-25T01:19:38.493Z,92.96
2023-05-25T01:22:18.026Z,92.16
2023-05-25T01:24:52.122Z,91.12
2023-05-25T01:27:30.825Z,95.84
2023-05-25T01:30:02.908Z,92.17
2023-05-25T01:32:35.569Z,94.94
2023-05-25T01:35:06.902Z,97.36
2023-05-25T01:37:47.938Z,94.20
2023-05-25T01:40:19.019Z,95.25
2023-05-25T01:42:49.683Z,96.16
2023-05-25T01:45:20.385Z,96.70
2023-05-25T01:48:00.450Z,96.65
2023-05-25T01:50:39.525Z,96.82
2023-05-25T01:53:19.005Z,98.15
2023-05-25T01:55:55.386Z,98.88
2023-05-25T01:58:27.381Z,99.62
2023-05-25T02:00:58.605Z,100.00
2023-05-25T02:03:29.546Z,100.00
2023-05-25T02:06:01.020Z,100.00
2023-05-25T02:08:34.618Z,99.67
2023-05-25T02:11:05.720Z,96.56
2023-05-25T02:13:36.471Z,97.10
2023-05-25T02:16:07.258Z,97.79
2023-05-25T02:18:37.866Z,98.10
2023-05-25T02:21:08.579Z,100.00
2023-05-25T02:23:42.513Z,100.00
2023-05-25T02:26:13.078Z,100.00
2023-05-25T02:28:43.669Z,100.00
2023-05-25T02:31:14.363Z,100.00
2023-05-25T02:33:45.062Z,100.00
2023-05-25T02:36:15.821Z,100.00
2023-05-25T02:38:50.134Z,100.00
2023-05-25T02:41:24.430Z,100.00
2023-05-25T02:43:55.075Z,100.00
2023-05-25T02:46:25.826Z,100.00
2023-05-25T02:48:57.287Z,100.00
2023-05-25T02:51:28.924Z,100.00
2023-05-25T02:54:04.369Z,100.00
2023-05-25T02:56:36.435Z,100.00
2023-05-25T02:59:09.236Z,100.00
2023-05-25T03:01:40.944Z,100.00
2023-05-25T03:04:11.848Z,100.00
2023-05-25T03:06:42.440Z,100.00
2023-05-25T03:09:20.397Z,100.00
2023-05-25T03:11:53.278Z,100.00
2023-05-25T03:14:25.085Z,100.00
2023-05-25T03:17:00.952Z,100.00
2023-05-25T03:19:32.509Z,100.00
2023-05-25T03:22:03.801Z,100.00
2023-05-25T03:24:41.695Z,100.00
2023-05-25T03:27:13.286Z,100.00
2023-05-25T03:29:43.921Z,100.00
2023-05-25T03:32:14.793Z,100.00
2023-05-25T03:34:45.821Z,100.00
2023-05-25T03:37:19.371Z,100.00
2023-05-25T03:39:52.697Z,100.00
2023-05-25T03:42:23.259Z,100.00
2023-05-25T03:44:54.141Z,100.00
2023-05-25T03:47:24.894Z,100.00
2023-05-25T03:49:55.908Z,100.00
2023-05-25T03:52:26.482Z,100.00
2023-05-25T03:55:01.826Z,100.00
2023-05-25T03:57:32.694Z,100.00
2023-05-25T04:00:03.271Z,100.00
2023-05-25T04:02:43.330Z,100.00
2023-05-25T04:05:14.026Z,100.00
2023-05-25T04:07:44.626Z,100.00
2023-05-25T04:10:18.494Z,100.00
2023-05-25T04:12:49.073Z,100.00
2023-05-25T04:15:21.444Z,100.00
2023-05-25T04:18:11.033Z,100.00
2023-05-25T04:20:41.961Z,100.00
2023-05-25T04:23:15.968Z,100.00
2023-05-25T04:25:51.390Z,98.53
2023-05-25T04:28:22.953Z,97.86
2023-05-25T04:30:59.685Z,95.62
2023-05-25T04:33:50.564Z,95.00
2023-05-25T04:36:28.472Z,92.56
2023-05-25T04:39:03.061Z,91.96
2023-05-25T04:41:37.891Z,90.16
2023-05-25T04:44:14.017Z,88.45
2023-05-25T04:46:53.976Z,86.28
2023-05-25T04:49:30.601Z,85.73
2023-05-25T04:52:01.152Z,84.84
2023-05-25T04:54:33.589Z,85.29
2023-05-25T04:57:09.204Z,80.80
2023-05-25T04:59:40.082Z,82.57
2023-05-25T05:02:11.188Z,82.63
2023-05-25T05:04:42.556Z,79.44
2023-05-25T05:07:13.416Z,75.97
2023-05-25T05:09:44.512Z,77.34
2023-05-25T05:12:18.646Z,74.42
2023-05-25T05:14:53.348Z,74.84
2023-05-25T05:17:24.968Z,72.88
2023-05-25T05:19:55.859Z,72.54
2023-05-25T05:22:27.443Z,67.95
2023-05-25T05:24:58.175Z,63.98
2023-05-25T05:27:31.585Z,61.87
2023-05-25T05:30:07.799Z,59.82
2023-05-25T05:32:38.498Z,57.79
2023-05-25T05:35:11.778Z,55.98
2023-05-25T05:37:47.096Z,55.18
2023-05-25T05:40:17.735Z,55.69
2023-05-25T05:42:51.072Z,56.33
2023-05-25T05:45:21.813Z,56.05
2023-05-25T05:47:52.553Z,56.13
2023-05-25T05:50:23.626Z,55.14
2023-05-25T05:52:55.304Z,53.22
2023-05-25T05:55:26.546Z,52.68
2023-05-25T05:58:00.047Z,51.31
2023-05-25T06:00:31.009Z,49.08
2023-05-25T06:03:01.739Z,48.21
2023-05-25T06:05:34.112Z,48.67
2023-05-25T06:08:06.040Z,48.15
2023-05-25T06:10:38.913Z,46.73
2023-05-25T06:13:12.210Z,45.49
2023-05-25T06:15:43.133Z,46.47
2023-05-25T06:18:18.862Z,48.71
2023-05-25T06:20:49.904Z,48.03
2023-05-25T06:23:20.952Z,49.51
2023-05-25T06:25:51.631Z,48.95
2023-05-25T06:28:24.817Z,49.24
2023-05-25T06:30:55.438Z,47.35
2023-05-25T06:33:26.597Z,46.39
2023-05-25T06:36:00.693Z,45.58
2023-05-25T06:38:32.481Z,44.18
2023-05-25T06:41:05.570Z,43.49
2023-05-25T06:43:39.704Z,44.46
2023-05-25T06:46:18.676Z,46.21
2023-05-25T06:48:49.576Z,48.07
2023-05-25T06:51:20.141Z,50.22
2023-05-25T06:53:50.683Z,52.43
2023-05-25T06:56:21.663Z,54.55
2023-05-25T06:58:55.043Z,54.27
2023-05-25T07:01:25.720Z,53.76
2023-05-25T07:03:56.354Z,53.24
2023-05-25T07:06:26.966Z,55.83
2023-05-25T07:08:58.117Z,55.56
2023-05-25T07:11:28.733Z,55.50
2023-05-25T07:14:01.905Z,58.30
2023-05-25T07:16:32.517Z,60.27
2023-05-25T07:19:03.053Z,63.79
2023-05-25T07:21:36.742Z,65.29
2023-05-25T07:24:07.916Z,66.38
2023-05-25T07:26:39.250Z,65.87
2023-05-25T07:29:12.730Z,65.46
2023-05-25T07:31:43.383Z,64.67
2023-05-25T07:34:13.976Z,61.72
2023-05-25T07:36:44.596Z,60.91
2023-05-25T07:39:15.220Z,60.78
2023-05-25T07:41:45.786Z,59.96
2023-05-25T07:44:18.906Z,58.49
2023-05-25T07:46:49.512Z,58.27
2023-05-25T07:49:20.195Z,57.72
2023-05-25T07:51:50.994Z,57.05
2023-05-25T07:54:21.682Z,55.53
2023-05-25T07:56:52.493Z,54.63
2023-05-25T07:59:25.711Z,52.66
2023-05-25T08:01:56.358Z,50.88
2023-05-25T08:04:27.051Z,49.62
2023-05-25T08:06:57.665Z,48.16
2023-05-25T08:09:28.326Z,49.31
2023-05-25T08:12:18.692Z,47.17
2023-05-25T08:14:52.157Z,43.34
2023-05-25T08:17:23.013Z,43.24
2023-05-25T08:19:53.830Z,42.16
2023-05-25T08:22:24.431Z,42.86
2023-05-25T08:24:54.991Z,41.19
2023-05-25T08:27:25.726Z,41.27
2023-05-25T08:29:58.893Z,41.10
2023-05-25T08:32:32.397Z,38.43
2023-05-25T08:35:03.474Z,36.98
2023-05-25T08:37:35.824Z,38.47
2023-05-25T08:40:08.074Z,37.59
2023-05-25T08:42:38.649Z,36.12
2023-05-25T08:45:26.434Z,34.84
2023-05-25T08:48:04.593Z,36.89
2023-05-25T08:50:36.655Z,37.95
2023-05-25T08:53:12.009Z,39.24
2023-05-25T08:55:45.375Z,39.39
2023-05-25T08:58:23.645Z,38.69
2023-05-25T09:01:01.481Z,41.04
2023-05-25T09:03:33.978Z,40.69
2023-05-25T09:06:04.774Z,38.75
2023-05-25T09:08:35.509Z,39.64
2023-05-25T09:11:07.712Z,43.69
2023-05-25T09:13:39.195Z,45.62
2023-05-25T09:16:12.785Z,43.21
2023-05-25T09:18:43.422Z,41.28
2023-05-25T09:21:14.025Z,40.22
2023-05-25T09:23:44.949Z,41.71
2023-05-25T09:26:15.625Z,43.66
2023-05-25T09:28:49.571Z,43.54
2023-05-25T09:31:26.613Z,44.02
2023-05-25T09:34:00.519Z,42.03
2023-05-25T09:36:32.477Z,39.65
2023-05-25T09:39:04.028Z,38.49
2023-05-25T09:41:34.886Z,37.54
2023-05-25T09:44:11.502Z,38.89
2023-05-25T09:46:45.449Z,40.39
2023-05-25T09:49:16.512Z,40.78
2023-05-25T09:51:47.186Z,40.07
2023-05-25T09:54:17.915Z,38.01
2023-05-25T09:56:49.055Z,37.48
2023-05-25T09:59:19.815Z,35.89
2023-05-25T10:01:55.325Z,35.96
2023-05-25T10:04:25.984Z,36.22
2023-05-25T10:06:58.791Z,35.23
2023-05-25T10:09:32.811Z,35.24
2023-05-25T10:12:04.916Z,36.01
2023-05-25T10:14:38.697Z,34.24
2023-05-25T10:17:14.443Z,35.98
2023-05-25T10:19:52.406Z,35.75
2023-05-25T10:22:26.288Z,37.51
2023-05-25T10:25:00.013Z,37.60
2023-05-25T10:27:37.229Z,39.02
2023-05-25T10:30:09.398Z,38.46
2023-05-25T10:32:44.176Z,37.29
2023-05-25T10:35:16.821Z,36.33
2023-05-25T10:37:47.916Z,36.27
2023-05-25T10:40:19.635Z,36.72
2023-05-25T10:42:50.584Z,36.18
2023-05-25T10:45:21.933Z,36.81
2023-05-25T10:47:55.739Z,35.78
2023-05-25T10:50:27.959Z,36.82
2023-05-25T10:53:02.954Z,35.57
2023-05-25T10:55:44.987Z,34.24
2023-05-25T10:58:16.771Z,31.96
2023-05-25T11:01:00.284Z,34.16
2023-05-25T11:03:57.371Z,36.08
2023-05-25T11:07:03.027Z,37.61
2023-05-25T11:09:36.124Z,37.33
2023-05-25T11:12:07.640Z,38.41
2023-05-25T11:14:42.427Z,38.51
2023-05-25T11:17:15.669Z,37.87
2023-05-25T11:19:53.278Z,37.84
2023-05-25T11:22:33.284Z,39.48
2023-05-25T11:25:05.317Z,40.23
2023-05-25T11:27:48.125Z,38.81
2023-05-25T11:30:21.468Z,38.40
2023-05-25T11:32:52.998Z,38.85
2023-05-25T11:35:29.006Z,36.64
2023-05-25T11:38:00.769Z,37.17
2023-05-25T11:40:34.428Z,35.32
2023-05-25T11:43:06.564Z,35.36
2023-05-25T11:45:38.469Z,34.25
2023-05-25T11:48:09.479Z,36.02
2023-05-25T11:50:42.789Z,36.11
2023-05-25T11:53:13.823Z,34.60
2023-05-25T11:55:44.427Z,33.89
2023-05-25T11:58:14.942Z,32.52
2023-05-25T12:00:45.658Z,32.99
2023-05-25T12:03:32.811Z,35.10
2023-05-25T12:06:06.170Z,35.68
2023-05-25T12:08:36.887Z,35.51
2023-05-25T12:11:07.901Z,36.11
2023-05-25T12:13:38.721Z,35.53
2023-05-25T12:16:10.120Z,36.55
2023-05-25T12:18:40.821Z,37.33
2023-05-25T12:21:14.207Z,36.63
2023-05-25T12:23:45.112Z,37.66
2023-05-25T12:26:17.171Z,37.57
2023-05-25T12:29:02.264Z,36.89
2023-05-25T12:31:34.537Z,35.85
2023-05-25T12:34:12.683Z,35.50
2023-05-25T12:36:49.122Z,33.26
2023-05-25T12:39:35.203Z,30.32
2023-05-25T12:42:06.869Z,30.77
2023-05-25T12:44:39.275Z,32.76
2023-05-25T12:47:19.949Z,36.59
2023-05-25T12:49:53.231Z,37.05
2023-05-25T12:52:39.886Z,37.16
2023-05-25T12:55:30.561Z,37.12
2023-05-25T12:58:02.382Z,36.59
2023-05-25T13:00:36.372Z,36.60
2023-05-25T13:03:08.300Z,37.00
2023-05-25T13:05:40.463Z,35.21
2023-05-25T13:08:13.858Z,35.13
2023-05-25T13:10:48.751Z,36.73
2023-05-25T13:13:19.480Z,36.38
2023-05-25T13:15:50.059Z,37.22
2023-05-25T13:18:20.745Z,36.80
2023-05-25T13:20:55.216Z,36.45
2023-05-25T13:23:29.973Z,37.59
2023-05-25T13:26:00.763Z,39.71
2023-05-25T13:28:32.137Z,39.61
2023-05-25T13:31:02.874Z,39.54
2023-05-25T13:33:33.530Z,38.93
2023-05-25T13:36:10.730Z,39.47
2023-05-25T13:38:45.303Z,40.72
2023-05-25T13:41:16.671Z,37.90
2023-05-25T13:43:47.402Z,34.28
2023-05-25T13:46:33.573Z,35.72
2023-05-25T13:49:05.885Z,35.93
2023-05-25T13:51:38.462Z,35.66
2023-05-25T13:54:13.218Z,36.03
2023-05-25T13:56:44.867Z,35.34
2023-05-25T13:59:15.930Z,35.62
2023-05-25T14:01:46.850Z,33.76
2023-05-25T14:04:18.967Z,33.69
2023-05-25T14:06:50.313Z,33.85
2023-05-25T14:09:23.693Z,33.85
2023-05-25T14:12:00.728Z,33.28
2023-05-25T14:14:38.926Z,34.43
2023-05-25T14:17:18.111Z,34.54
2023-05-25T14:19:51.334Z,35.95
2023-05-25T14:22:23.532Z,35.08
2023-05-25T14:25:00.427Z,35.09
2023-05-25T14:27:32.443Z,36.51
2023-05-25T14:30:08.627Z,37.64
2023-05-25T14:32:39.616Z,36.60
2023-05-25T14:35:13.931Z,35.17
2023-05-25T14:37:54.893Z,33.74
2023-05-25T14:40:41.179Z,32.30
2023-05-25T14:43:14.732Z,32.36
2023-05-25T14:45:48.049Z,34.13
2023-05-25T14:48:30.972Z,35.89
2023-05-25T14:51:02.966Z,38.41
2023-05-25T14:53:36.696Z,39.30
2023-05-25T14:56:11.264Z,38.85
2023-05-25T14:58:42.142Z,38.49
2023-05-25T15:01:19.190Z,37.74
2023-05-25T15:03:49.949Z,36.76
2023-05-25T15:06:23.222Z,37.88
2023-05-25T15:08:58.158Z,36.58
2023-05-25T15:11:36.252Z,37.21
2023-05-25T15:14:12.443Z,37.24
2023-05-25T15:16:43.317Z,37.71
2023-05-25T15:19:16.782Z,38.90
2023-05-25T15:21:48.481Z,38.55
2023-05-25T15:24:19.800Z,37.32
2023-05-25T15:26:53.209Z,37.32
2023-05-25T15:29:23.845Z,34.82
2023-05-25T15:31:55.750Z,33.28
2023-05-25T15:34:26.404Z,32.48
2023-05-25T15:36:57.270Z,32.03
2023-05-25T15:39:27.940Z,34.00
2023-05-25T15:42:01.733Z,33.03
2023-05-25T15:44:33.276Z,32.05
2023-05-25T15:47:03.898Z,32.33
2023-05-25T15:49:37.194Z,32.29
2023-05-25T15:52:09.039Z,33.04
2023-05-25T15:54:39.984Z,33.40
2023-05-25T15:57:13.296Z,32.10
2023-05-25T15:59:43.847Z,32.02
2023-05-25T16:02:14.747Z,31.13
2023-05-25T16:04:45.369Z,31.03
2023-05-25T16:07:16.057Z,32.86
2023-05-25T16:09:46.907Z,32.69
2023-05-25T16:12:24.818Z,31.83
2023-05-25T16:14:55.679Z,31.84
2023-05-25T16:17:26.675Z,33.98
2023-05-25T16:19:57.500Z,32.38
2023-05-25T16:22:28.187Z,30.93
2023-05-25T16:24:59.091Z,32.40
2023-05-25T16:27:33.404Z,32.01
2023-05-25T16:30:04.269Z,31.39
2023-05-25T16:32:35.195Z,33.71
2023-05-25T16:35:06.263Z,32.87
2023-05-25T16:37:37.100Z,32.41
2023-05-25T16:40:08.455Z,31.90
2023-05-25T16:42:41.774Z,31.02
2023-05-25T16:45:13.545Z,30.76
2023-05-25T16:47:44.290Z,30.37
2023-05-25T16:50:15.375Z,30.89
2023-05-25T16:52:45.917Z,31.29
2023-05-25T16:55:16.623Z,32.54
2023-05-25T16:57:50.241Z,33.49
2023-05-25T17:00:21.628Z,31.64
2023-05-25T17:02:52.418Z,32.89
2023-05-25T17:05:23.225Z,34.33
2023-05-25T17:07:53.844Z,35.46
2023-05-25T17:10:24.765Z,36.27
2023-05-25T17:12:58.217Z,36.75
2023-05-25T17:15:28.894Z,35.39
2023-05-25T17:17:59.565Z,33.65
2023-05-25T17:20:30.251Z,34.61
2023-05-25T17:23:01.348Z,37.35
2023-05-25T17:25:34.006Z,37.07
2023-05-25T17:28:07.627Z,38.12
2023-05-25T17:30:38.525Z,37.47
2023-05-25T17:33:09.260Z,36.29
2023-05-25T17:35:39.914Z,37.12
2023-05-25T17:38:10.999Z,36.15
2023-05-25T17:40:42.005Z,36.80
2023-05-25T17:43:15.277Z,37.20
2023-05-25T17:45:46.666Z,37.00
2023-05-25T17:48:18.055Z,38.94
2023-05-25T17:50:49.150Z,38.72
2023-05-25T17:53:19.787Z,39.83
2023-05-25T17:55:50.813Z,38.92
2023-05-25T17:58:24.174Z,37.86
2023-05-25T18:00:54.956Z,37.83
2023-05-25T18:03:26.158Z,37.84
2023-05-25T18:05:57.017Z,38.12
2023-05-25T18:08:27.622Z,39.24
2023-05-25T18:10:58.799Z,40.67
2023-05-25T18:13:32.107Z,40.30
2023-05-25T18:16:03.018Z,40.73
2023-05-25T18:18:33.764Z,39.88
2023-05-25T18:21:04.388Z,41.49
2023-05-25T18:23:35.342Z,41.65
2023-05-25T18:26:06.875Z,42.22
2023-05-25T18:28:42.622Z,42.60
2023-05-25T18:31:13.220Z,42.30
2023-05-25T18:33:43.815Z,43.92
2023-05-25T18:36:14.427Z,46.31
2023-05-25T18:38:44.958Z,48.65
2023-05-25T18:41:15.662Z,49.72
2023-05-25T18:43:49.693Z,50.82
2023-05-25T18:46:20.878Z,52.04
2023-05-25T18:48:51.574Z,53.83
2023-05-25T18:51:23.374Z,55.02
2023-05-25T18:53:54.693Z,56.28
2023-05-25T18:56:26.212Z,57.72
2023-05-25T18:58:59.487Z,57.95
2023-05-25T19:01:32.975Z,59.38
2023-05-25T19:04:04.036Z,61.65
2023-05-25T19:06:36.369Z,62.90
2023-05-25T19:09:07.081Z,64.10
2023-05-25T19:11:38.050Z,64.70
2023-05-25T19:14:11.407Z,66.18
2023-05-25T19:16:42.246Z,66.58
2023-05-25T19:19:13.058Z,67.66
2023-05-25T19:21:43.756Z,68.70
2023-05-25T19:24:14.522Z,69.54
2023-05-25T19:26:46.366Z,69.08
2023-05-25T19:29:23.454Z,71.04
2023-05-25T19:31:54.209Z,71.98
2023-05-25T19:34:25.169Z,73.52
2023-05-25T19:37:10.190Z,73.58
2023-05-25T19:39:41.299Z,75.03
2023-05-25T19:42:12.045Z,75.17
2023-05-25T19:44:46.576Z,76.24
2023-05-25T19:47:17.351Z,77.14
2023-05-25T19:49:48.092Z,79.58
2023-05-25T19:52:20.567Z,80.29
2023-05-25T19:54:51.352Z,80.31
2023-05-25T19:57:22.286Z,81.88
2023-05-25T19:59:55.753Z,82.59
2023-05-25T20:02:26.571Z,83.20
2023-05-25T20:04:57.252Z,83.26
2023-05-25T20:07:28.192Z,82.85
2023-05-25T20:09:58.993Z,83.34
2023-05-25T20:12:29.801Z,83.58
2023-05-25T20:15:03.477Z,84.69
2023-05-25T20:17:34.120Z,84.63
2023-05-25T20:20:05.369Z,87.60
2023-05-25T20:22:36.403Z,88.93
2023-05-25T20:25:07.263Z,89.19
2023-05-25T20:27:37.872Z,89.02
2023-05-25T20:30:13.870Z,94.40
2023-05-25T20:32:46.478Z,95.67
2023-05-25T20:35:18.746Z,93.93
2023-05-25T20:37:49.344Z,93.67
2023-05-25T20:40:20.018Z,92.70
2023-05-25T20:42:51.117Z,94.24
2023-05-25T20:45:24.869Z,97.43
2023-05-25T20:48:04.309Z,100.00
2023-05-25T20:50:35.156Z,100.00
2023-05-25T20:53:05.907Z,94.26
2023-05-25T20:55:36.498Z,93.09
2023-05-25T20:58:07.083Z,95.27
2023-05-25T21:00:40.688Z,92.97
2023-05-25T21:03:11.420Z,99.23
2023-05-25T21:05:42.257Z,91.48
2023-05-25T21:08:12.846Z,93.93
2023-05-25T21:10:43.492Z,96.87
2023-05-25T21:13:14.948Z,91.92
2023-05-25T21:15:48.322Z,96.13
2023-05-25T21:18:19.134Z,92.47
2023-05-25T21:20:52.486Z,91.87
2023-05-25T21:23:23.342Z,94.49
2023-05-25T21:25:54.170Z,95.86
2023-05-25T21:28:24.724Z,99.21
2023-05-25T21:30:57.939Z,97.14
2023-05-25T21:33:29.487Z,97.64
2023-05-25T21:36:00.228Z,100.00
2023-05-25T21:38:30.951Z,98.31
2023-05-25T21:41:01.799Z,100.00
2023-05-25T21:43:32.683Z,100.00
2023-05-25T21:46:06.345Z,98.36
2023-05-25T21:48:37.114Z,99.40
2023-05-25T21:51:07.976Z,100.00
2023-05-25T21:53:38.535Z,100.00
2023-05-25T21:56:09.114Z,97.18
2023-05-25T21:58:40.062Z,100.00
2023-05-25T22:01:13.577Z,99.61
2023-05-25T22:03:44.384Z,100.00
2023-05-25T22:06:14.981Z,100.00
2023-05-25T22:08:45.838Z,100.00
2023-05-25T22:11:16.731Z,100.00
2023-05-25T22:13:47.399Z,100.00
2023-05-25T22:16:20.986Z,100.00
2023-05-25T22:18:51.743Z,100.00
2023-05-25T22:21:22.591Z,100.00
2023-05-25T22:23:53.130Z,100.00
2023-05-25T22:26:23.860Z,100.00
2023-05-25T22:28:54.533Z,100.00
2023-05-25T22:31:28.442Z,100.00
2023-05-25T22:33:59.227Z,100.00
2023-05-25T22:36:29.884Z,100.00
2023-05-25T22:39:00.962Z,100.00
2023-05-25T22:41:32.027Z,100.00
2023-05-25T22:44:02.787Z,100.00
2023-05-25T22:46:36.147Z,100.00
2023-05-25T22:49:07.006Z,100.00
2023-05-25T22:51:37.714Z,100.00
2023-05-25T22:54:08.385Z,100.00
2023-05-25T22:56:39.226Z,100.00
2023-05-25T22:59:09.961Z,100.00
2023-05-25T23:01:43.427Z,100.00
2023-05-25T23:04:14.316Z,100.00
2023-05-25T23:06:45.291Z,100.00
2023-05-25T23:09:16.222Z,100.00
2023-05-25T23:11:47.321Z,100.00
2023-05-25T23:14:17.932Z,100.00
2023-05-25T23:16:51.311Z,100.00
2023-05-25T23:19:23.536Z,100.00
2023-05-25T23:21:54.627Z,100.00
2023-05-25T23:24:26.319Z,100.00
2023-05-25T23:26:57.173Z,100.00
2023-05-25T23:29:28.287Z,100.00
2023-05-25T23:32:01.800Z,100.00
2023-05-25T23:34:32.594Z,100.00
2023-05-25T23:37:06.327Z,100.00
2023-05-25T23:39:37.806Z,100.00
2023-05-25T23:42:08.811Z,100.00
2023-05-25T23:44:39.558Z,100.00
2023-05-25T23:47:13.294Z,100.00
2023-05-25T23:49:44.503Z,100.00
2023-05-25T23:52:15.733Z,100.00
2023-05-25T23:54:46.414Z,100.00
2023-05-25T23:57:18.000Z,100.00
2023-05-25T23:59:48.604Z,100.00
